sensor_id;sensor_type;location;lat;lon;timestamp;P1;durP1;ratioP1;P2;durP2;ratioP2
66626;SDS011;53498;50.422;14.912;2022-08-01T00:02:11;9.52;;;8.63;;
66626;SDS011;53498;50.422;14.912;2022-08-01T00:04:36;10.82;;;9.48;;
66626;SDS011;53498;50.422;14.912;2022-08-01T00:07:02;10.60;;;9.57;;
66626;SDS011;53498;50.422;14.912;2022-08-01T00:09:28;10.90;;;9.88;;
66626;SDS011;53498;50.422;14.912;2022-08-01T00:11:54;10.15;;;9.18;;
66626;SDS011;53498;50.422;14.912;2022-08-01T00:14:20;10.10;;;9.20;;
66626;SDS011;53498;50.422;14.912;2022-08-01T00:16:45;16.75;;;9.65;;
66626;SDS011;53498;50.422;14.912;2022-08-01T00:19:11;10.50;;;9.30;;
66626;SDS011;53498;50.422;14.912;2022-08-01T00:21:36;10.18;;;9.27;;
66626;SDS011;53498;50.422;14.912;2022-08-01T00:24:01;10.07;;;9.18;;
66626;SDS011;53498;50.422;14.912;2022-08-01T00:26:27;10.90;;;9.90;;
66626;SDS011;53498;50.422;14.912;2022-08-01T00:28:53;10.30;;;9.30;;
66626;SDS011;53498;50.422;14.912;2022-08-01T00:31:18;10.10;;;9.07;;
66626;SDS011;53498;50.422;14.912;2022-08-01T00:33:43;10.65;;;9.65;;
66626;SDS011;53498;50.422;14.912;2022-08-01T00:36:09;10.18;;;9.15;;
66626;SDS011;53498;50.422;14.912;2022-08-01T00:38:38;8.85;;;7.95;;
66626;SDS011;53498;50.422;14.912;2022-08-01T00:41:03;10.48;;;9.63;;
66626;SDS011;53498;50.422;14.912;2022-08-01T00:43:31;10.27;;;9.38;;
66626;SDS011;53498;50.422;14.912;2022-08-01T00:45:57;10.50;;;9.50;;
66626;SDS011;53498;50.422;14.912;2022-08-01T00:48:22;10.82;;;9.52;;
66626;SDS011;53498;50.422;14.912;2022-08-01T00:50:48;10.88;;;9.85;;
66626;SDS011;53498;50.422;14.912;2022-08-01T00:53:14;10.68;;;9.65;;
66626;SDS011;53498;50.422;14.912;2022-08-01T00:55:40;10.68;;;9.73;;
66626;SDS011;53498;50.422;14.912;2022-08-01T00:58:05;10.30;;;9.30;;
66626;SDS011;53498;50.422;14.912;2022-08-01T01:00:31;10.52;;;9.48;;
66626;SDS011;53498;50.422;14.912;2022-08-01T01:02:58;11.75;;;9.85;;
66626;SDS011;53498;50.422;14.912;2022-08-01T01:05:23;10.23;;;9.32;;
66626;SDS011;53498;50.422;14.912;2022-08-01T01:13:44;12.27;;;9.75;;
66626;SDS011;53498;50.422;14.912;2022-08-01T01:16:15;9.60;;;8.75;;
66626;SDS011;53498;50.422;14.912;2022-08-01T01:18:53;9.48;;;8.57;;
66626;SDS011;53498;50.422;14.912;2022-08-01T01:29:43;9.68;;;7.90;;
66626;SDS011;53498;50.422;14.912;2022-08-01T01:32:17;8.90;;;8.02;;
66626;SDS011;53498;50.422;14.912;2022-08-01T01:34:48;9.85;;;8.70;;
66626;SDS011;53498;50.422;14.912;2022-08-01T01:37:16;12.05;;;8.43;;
66626;SDS011;53498;50.422;14.912;2022-08-01T01:39:44;10.90;;;9.38;;
66626;SDS011;53498;50.422;14.912;2022-08-01T01:42:11;9.63;;;8.73;;
66626;SDS011;53498;50.422;14.912;2022-08-01T01:44:37;9.32;;;8.43;;
66626;SDS011;53498;50.422;14.912;2022-08-01T01:47:04;8.85;;;7.97;;
66626;SDS011;53498;50.422;14.912;2022-08-01T01:49:30;11.02;;;9.25;;
66626;SDS011;53498;50.422;14.912;2022-08-01T01:52:04;9.63;;;8.63;;
66626;SDS011;53498;50.422;14.912;2022-08-01T01:54:35;10.10;;;8.85;;
66626;SDS011;53498;50.422;14.912;2022-08-01T01:57:04;9.23;;;8.13;;
66626;SDS011;53498;50.422;14.912;2022-08-01T01:59:32;9.90;;;9.00;;
66626;SDS011;53498;50.422;14.912;2022-08-01T02:02:01;11.45;;;9.02;;
66626;SDS011;53498;50.422;14.912;2022-08-01T02:04:29;9.35;;;8.40;;
66626;SDS011;53498;50.422;14.912;2022-08-01T02:06:55;10.68;;;9.68;;
66626;SDS011;53498;50.422;14.912;2022-08-01T02:09:23;12.43;;;8.85;;
66626;SDS011;53498;50.422;14.912;2022-08-01T02:11:50;10.52;;;9.50;;
66626;SDS011;53498;50.422;14.912;2022-08-01T02:14:19;10.05;;;9.07;;
66626;SDS011;53498;50.422;14.912;2022-08-01T02:16:49;10.55;;;9.45;;
66626;SDS011;53498;50.422;14.912;2022-08-01T02:19:18;10.82;;;9.82;;
66626;SDS011;53498;50.422;14.912;2022-08-01T02:21:50;11.77;;;9.48;;
66626;SDS011;53498;50.422;14.912;2022-08-01T02:24:28;11.20;;;10.10;;
66626;SDS011;53498;50.422;14.912;2022-08-01T02:27:00;11.30;;;9.50;;
66626;SDS011;53498;50.422;14.912;2022-08-01T02:29:33;10.98;;;9.88;;
66626;SDS011;53498;50.422;14.912;2022-08-01T02:32:04;10.90;;;9.77;;
66626;SDS011;53498;50.422;14.912;2022-08-01T02:34:33;11.05;;;9.90;;
66626;SDS011;53498;50.422;14.912;2022-08-01T02:37:00;15.55;;;11.50;;
66626;SDS011;53498;50.422;14.912;2022-08-01T02:39:28;11.13;;;9.98;;
66626;SDS011;53498;50.422;14.912;2022-08-01T02:41:57;11.85;;;10.75;;
66626;SDS011;53498;50.422;14.912;2022-08-01T02:44:31;10.50;;;9.40;;
66626;SDS011;53498;50.422;14.912;2022-08-01T02:47:00;11.70;;;9.32;;
66626;SDS011;53498;50.422;14.912;2022-08-01T02:49:37;11.60;;;10.50;;
66626;SDS011;53498;50.422;14.912;2022-08-01T02:52:07;12.77;;;10.15;;
66626;SDS011;53498;50.422;14.912;2022-08-01T02:54:35;11.18;;;9.73;;
66626;SDS011;53498;50.422;14.912;2022-08-01T02:57:02;11.70;;;10.60;;
66626;SDS011;53498;50.422;14.912;2022-08-01T02:59:30;11.00;;;9.88;;
66626;SDS011;53498;50.422;14.912;2022-08-01T03:01:59;10.07;;;9.00;;
66626;SDS011;53498;50.422;14.912;2022-08-01T03:04:26;11.00;;;9.93;;
66626;SDS011;53498;50.422;14.912;2022-08-01T03:07:03;13.18;;;10.00;;
66626;SDS011;53498;50.422;14.912;2022-08-01T03:09:32;11.15;;;10.05;;
66626;SDS011;53498;50.422;14.912;2022-08-01T03:12:01;12.15;;;10.13;;
66626;SDS011;53498;50.422;14.912;2022-08-01T03:14:30;10.95;;;9.20;;
66626;SDS011;53498;50.422;14.912;2022-08-01T03:17:03;10.82;;;9.77;;
66626;SDS011;53498;50.422;14.912;2022-08-01T03:19:30;12.27;;;11.00;;
66626;SDS011;53498;50.422;14.912;2022-08-01T03:21:58;9.75;;;8.85;;
66626;SDS011;53498;50.422;14.912;2022-08-01T03:24:28;10.32;;;9.32;;
66626;SDS011;53498;50.422;14.912;2022-08-01T03:27:00;11.13;;;9.93;;
66626;SDS011;53498;50.422;14.912;2022-08-01T03:29:27;9.38;;;8.48;;
66626;SDS011;53498;50.422;14.912;2022-08-01T03:31:55;11.23;;;9.45;;
66626;SDS011;53498;50.422;14.912;2022-08-01T03:34:22;10.98;;;9.90;;
66626;SDS011;53498;50.422;14.912;2022-08-01T03:36:49;10.32;;;9.43;;
66626;SDS011;53498;50.422;14.912;2022-08-01T03:39:21;12.13;;;9.68;;
66626;SDS011;53498;50.422;14.912;2022-08-01T03:41:57;10.80;;;9.77;;
66626;SDS011;53498;50.422;14.912;2022-08-01T03:44:27;11.40;;;9.90;;
66626;SDS011;53498;50.422;14.912;2022-08-01T03:47:00;13.43;;;10.00;;
66626;SDS011;53498;50.422;14.912;2022-08-01T03:49:32;10.50;;;9.50;;
66626;SDS011;53498;50.422;14.912;2022-08-01T03:52:04;12.20;;;9.57;;
66626;SDS011;53498;50.422;14.912;2022-08-01T03:54:33;11.00;;;9.82;;
66626;SDS011;53498;50.422;14.912;2022-08-01T03:57:00;10.55;;;9.55;;
66626;SDS011;53498;50.422;14.912;2022-08-01T03:59:30;12.80;;;9.80;;
66626;SDS011;53498;50.422;14.912;2022-08-01T04:01:58;11.73;;;10.50;;
66626;SDS011;53498;50.422;14.912;2022-08-01T04:04:24;11.40;;;10.10;;
66626;SDS011;53498;50.422;14.912;2022-08-01T04:06:51;10.55;;;9.55;;
66626;SDS011;53498;50.422;14.912;2022-08-01T04:09:19;10.68;;;9.60;;
66626;SDS011;53498;50.422;14.912;2022-08-01T04:11:44;10.88;;;9.88;;
66626;SDS011;53498;50.422;14.912;2022-08-01T04:14:10;11.65;;;10.32;;
66626;SDS011;53498;50.422;14.912;2022-08-01T04:16:36;10.63;;;9.63;;
66626;SDS011;53498;50.422;14.912;2022-08-01T04:19:02;10.57;;;9.45;;
66626;SDS011;53498;50.422;14.912;2022-08-01T04:21:31;11.57;;;10.48;;
66626;SDS011;53498;50.422;14.912;2022-08-01T04:24:10;10.02;;;9.18;;
66626;SDS011;53498;50.422;14.912;2022-08-01T04:26:39;11.10;;;10.00;;
66626;SDS011;53498;50.422;14.912;2022-08-01T04:29:07;10.70;;;9.55;;
66626;SDS011;53498;50.422;14.912;2022-08-01T04:31:34;11.25;;;10.13;;
66626;SDS011;53498;50.422;14.912;2022-08-01T04:34:02;11.15;;;10.05;;
66626;SDS011;53498;50.422;14.912;2022-08-01T04:36:29;10.55;;;9.63;;
66626;SDS011;53498;50.422;14.912;2022-08-01T04:39:00;10.77;;;9.55;;
66626;SDS011;53498;50.422;14.912;2022-08-01T04:41:27;11.90;;;10.02;;
66626;SDS011;53498;50.422;14.912;2022-08-01T04:43:55;15.18;;;10.10;;
66626;SDS011;53498;50.422;14.912;2022-08-01T04:46:24;11.93;;;10.60;;
66626;SDS011;53498;50.422;14.912;2022-08-01T04:48:51;11.48;;;10.15;;
66626;SDS011;53498;50.422;14.912;2022-08-01T04:51:17;12.20;;;10.73;;
66626;SDS011;53498;50.422;14.912;2022-08-01T04:53:43;13.77;;;10.68;;
66626;SDS011;53498;50.422;14.912;2022-08-01T04:56:11;13.32;;;11.63;;
66626;SDS011;53498;50.422;14.912;2022-08-01T04:58:41;11.82;;;10.60;;
66626;SDS011;53498;50.422;14.912;2022-08-01T05:01:10;12.80;;;11.20;;
66626;SDS011;53498;50.422;14.912;2022-08-01T05:03:36;14.55;;;12.25;;
66626;SDS011;53498;50.422;14.912;2022-08-01T05:06:02;12.32;;;11.13;;
66626;SDS011;53498;50.422;14.912;2022-08-01T05:08:28;12.00;;;10.77;;
66626;SDS011;53498;50.422;14.912;2022-08-01T05:10:54;13.02;;;11.73;;
66626;SDS011;53498;50.422;14.912;2022-08-01T05:13:20;13.85;;;10.57;;
66626;SDS011;53498;50.422;14.912;2022-08-01T05:15:45;12.57;;;11.32;;
66626;SDS011;53498;50.422;14.912;2022-08-01T05:18:11;12.25;;;11.05;;
66626;SDS011;53498;50.422;14.912;2022-08-01T05:20:37;12.70;;;11.40;;
66626;SDS011;53498;50.422;14.912;2022-08-01T05:23:03;11.80;;;10.65;;
66626;SDS011;53498;50.422;14.912;2022-08-01T05:25:29;13.73;;;11.27;;
66626;SDS011;53498;50.422;14.912;2022-08-01T05:27:55;12.30;;;9.93;;
66626;SDS011;53498;50.422;14.912;2022-08-01T05:30:20;12.00;;;10.93;;
66626;SDS011;53498;50.422;14.912;2022-08-01T05:32:46;12.27;;;10.98;;
66626;SDS011;53498;50.422;14.912;2022-08-01T05:35:11;10.00;;;9.07;;
66626;SDS011;53498;50.422;14.912;2022-08-01T05:37:37;15.27;;;10.75;;
66626;SDS011;53498;50.422;14.912;2022-08-01T05:40:03;13.52;;;9.95;;
66626;SDS011;53498;50.422;14.912;2022-08-01T05:42:29;10.77;;;9.68;;
66626;SDS011;53498;50.422;14.912;2022-08-01T05:44:55;11.38;;;10.30;;
66626;SDS011;53498;50.422;14.912;2022-08-01T05:47:20;11.02;;;9.50;;
66626;SDS011;53498;50.422;14.912;2022-08-01T05:49:46;12.38;;;10.40;;
66626;SDS011;53498;50.422;14.912;2022-08-01T05:52:11;11.15;;;9.88;;
66626;SDS011;53498;50.422;14.912;2022-08-01T05:54:38;10.57;;;9.50;;
66626;SDS011;53498;50.422;14.912;2022-08-01T05:57:04;12.48;;;10.18;;
66626;SDS011;53498;50.422;14.912;2022-08-01T05:59:29;11.48;;;10.32;;
66626;SDS011;53498;50.422;14.912;2022-08-01T06:01:56;11.13;;;10.02;;
66626;SDS011;53498;50.422;14.912;2022-08-01T06:04:21;10.38;;;9.23;;
66626;SDS011;53498;50.422;14.912;2022-08-01T06:06:47;10.88;;;9.43;;
66626;SDS011;53498;50.422;14.912;2022-08-01T06:09:13;10.20;;;9.02;;
66626;SDS011;53498;50.422;14.912;2022-08-01T06:11:39;9.65;;;8.65;;
66626;SDS011;53498;50.422;14.912;2022-08-01T06:14:04;9.68;;;8.52;;
66626;SDS011;53498;50.422;14.912;2022-08-01T06:16:30;10.52;;;8.93;;
66626;SDS011;53498;50.422;14.912;2022-08-01T06:18:56;9.88;;;8.98;;
66626;SDS011;53498;50.422;14.912;2022-08-01T06:21:21;11.25;;;8.73;;
66626;SDS011;53498;50.422;14.912;2022-08-01T06:23:47;10.23;;;9.23;;
66626;SDS011;53498;50.422;14.912;2022-08-01T06:26:12;12.70;;;10.45;;
66626;SDS011;53498;50.422;14.912;2022-08-01T06:28:38;11.85;;;10.65;;
66626;SDS011;53498;50.422;14.912;2022-08-01T06:31:04;10.02;;;9.10;;
66626;SDS011;53498;50.422;14.912;2022-08-01T06:33:30;12.48;;;10.27;;
66626;SDS011;53498;50.422;14.912;2022-08-01T06:35:55;12.18;;;9.50;;
66626;SDS011;53498;50.422;14.912;2022-08-01T06:38:22;10.88;;;9.52;;
66626;SDS011;53498;50.422;14.912;2022-08-01T06:40:47;12.25;;;10.93;;
66626;SDS011;53498;50.422;14.912;2022-08-01T06:43:13;11.90;;;10.80;;
66626;SDS011;53498;50.422;14.912;2022-08-01T06:45:39;12.05;;;10.45;;
66626;SDS011;53498;50.422;14.912;2022-08-01T06:48:05;11.68;;;10.52;;
66626;SDS011;53498;50.422;14.912;2022-08-01T06:50:31;9.88;;;8.88;;
66626;SDS011;53498;50.422;14.912;2022-08-01T06:52:56;10.85;;;8.73;;
66626;SDS011;53498;50.422;14.912;2022-08-01T06:55:22;14.38;;;10.27;;
66626;SDS011;53498;50.422;14.912;2022-08-01T06:57:48;9.50;;;8.55;;
66626;SDS011;53498;50.422;14.912;2022-08-01T07:00:16;9.45;;;8.55;;
66626;SDS011;53498;50.422;14.912;2022-08-01T07:02:46;8.95;;;8.05;;
66626;SDS011;53498;50.422;14.912;2022-08-01T07:05:12;8.68;;;7.88;;
66626;SDS011;53498;50.422;14.912;2022-08-01T07:07:38;8.52;;;6.68;;
66626;SDS011;53498;50.422;14.912;2022-08-01T07:10:04;7.63;;;6.93;;
66626;SDS011;53498;50.422;14.912;2022-08-01T07:12:30;6.53;;;6.03;;
66626;SDS011;53498;50.422;14.912;2022-08-01T07:14:56;7.30;;;6.60;;
66626;SDS011;53498;50.422;14.912;2022-08-01T07:17:21;6.97;;;6.35;;
66626;SDS011;53498;50.422;14.912;2022-08-01T07:19:47;7.13;;;6.43;;
66626;SDS011;53498;50.422;14.912;2022-08-01T07:22:13;8.23;;;7.00;;
66626;SDS011;53498;50.422;14.912;2022-08-01T07:24:39;8.95;;;6.93;;
66626;SDS011;53498;50.422;14.912;2022-08-01T07:27:05;9.00;;;7.10;;
66626;SDS011;53498;50.422;14.912;2022-08-01T07:29:30;9.57;;;6.18;;
66626;SDS011;53498;50.422;14.912;2022-08-01T07:31:56;7.60;;;5.68;;
66626;SDS011;53498;50.422;14.912;2022-08-01T07:34:23;6.10;;;5.45;;
66626;SDS011;53498;50.422;14.912;2022-08-01T07:36:51;7.07;;;6.20;;
66626;SDS011;53498;50.422;14.912;2022-08-01T07:39:17;7.13;;;6.40;;
66626;SDS011;53498;50.422;14.912;2022-08-01T07:41:43;5.90;;;5.40;;
66626;SDS011;53498;50.422;14.912;2022-08-01T07:44:09;7.03;;;6.30;;
66626;SDS011;53498;50.422;14.912;2022-08-01T07:46:34;5.95;;;5.38;;
66626;SDS011;53498;50.422;14.912;2022-08-01T07:49:00;6.32;;;5.55;;
66626;SDS011;53498;50.422;14.912;2022-08-01T07:51:26;7.38;;;6.70;;
66626;SDS011;53498;50.422;14.912;2022-08-01T07:53:51;6.32;;;5.70;;
66626;SDS011;53498;50.422;14.912;2022-08-01T07:56:17;6.68;;;6.07;;
66626;SDS011;53498;50.422;14.912;2022-08-01T07:58:42;6.28;;;5.65;;
66626;SDS011;53498;50.422;14.912;2022-08-01T08:01:08;6.85;;;6.22;;
66626;SDS011;53498;50.422;14.912;2022-08-01T08:03:34;6.72;;;6.05;;
66626;SDS011;53498;50.422;14.912;2022-08-01T08:06:00;6.60;;;6.00;;
66626;SDS011;53498;50.422;14.912;2022-08-01T08:08:26;7.00;;;6.32;;
66626;SDS011;53498;50.422;14.912;2022-08-01T08:10:52;22.60;;;8.15;;
66626;SDS011;53498;50.422;14.912;2022-08-01T08:13:18;441.00;;;50.00;;
66626;SDS011;53498;50.422;14.912;2022-08-01T08:15:43;9.65;;;5.88;;
66626;SDS011;53498;50.422;14.912;2022-08-01T08:18:09;9.60;;;5.28;;
66626;SDS011;53498;50.422;14.912;2022-08-01T08:20:35;6.47;;;5.97;;
66626;SDS011;53498;50.422;14.912;2022-08-01T08:23:00;6.68;;;6.00;;
66626;SDS011;53498;50.422;14.912;2022-08-01T08:25:26;10.57;;;7.13;;
66626;SDS011;53498;50.422;14.912;2022-08-01T08:27:54;27.42;;;8.70;;
66626;SDS011;53498;50.422;14.912;2022-08-01T08:30:19;8.15;;;6.32;;
66626;SDS011;53498;50.422;14.912;2022-08-01T08:32:45;7.55;;;6.07;;
66626;SDS011;53498;50.422;14.912;2022-08-01T08:35:11;10.45;;;6.35;;
66626;SDS011;53498;50.422;14.912;2022-08-01T08:37:37;18.70;;;7.93;;
66626;SDS011;53498;50.422;14.912;2022-08-01T08:40:03;9.10;;;6.90;;
66626;SDS011;53498;50.422;14.912;2022-08-01T08:42:30;6.85;;;6.25;;
66626;SDS011;53498;50.422;14.912;2022-08-01T08:44:55;6.82;;;5.80;;
66626;SDS011;53498;50.422;14.912;2022-08-01T08:47:21;6.60;;;5.97;;
66626;SDS011;53498;50.422;14.912;2022-08-01T08:49:50;6.18;;;5.57;;
66626;SDS011;53498;50.422;14.912;2022-08-01T08:52:21;6.47;;;5.90;;
66626;SDS011;53498;50.422;14.912;2022-08-01T08:54:48;6.00;;;5.40;;
66626;SDS011;53498;50.422;14.912;2022-08-01T08:57:15;6.82;;;5.90;;
66626;SDS011;53498;50.422;14.912;2022-08-01T08:59:44;8.63;;;6.40;;
66626;SDS011;53498;50.422;14.912;2022-08-01T09:02:10;6.47;;;5.45;;
66626;SDS011;53498;50.422;14.912;2022-08-01T09:04:36;8.82;;;8.07;;
66626;SDS011;53498;50.422;14.912;2022-08-01T09:07:04;5.13;;;4.72;;
66626;SDS011;53498;50.422;14.912;2022-08-01T09:09:30;5.05;;;4.55;;
66626;SDS011;53498;50.422;14.912;2022-08-01T09:11:56;4.30;;;3.90;;
66626;SDS011;53498;50.422;14.912;2022-08-01T09:14:22;4.30;;;3.90;;
66626;SDS011;53498;50.422;14.912;2022-08-01T09:17:05;5.03;;;3.72;;
66626;SDS011;53498;50.422;14.912;2022-08-01T09:19:34;4.05;;;3.65;;
66626;SDS011;53498;50.422;14.912;2022-08-01T09:22:02;4.10;;;3.70;;
66626;SDS011;53498;50.422;14.912;2022-08-01T09:24:31;4.30;;;3.90;;
66626;SDS011;53498;50.422;14.912;2022-08-01T09:26:57;4.47;;;4.00;;
66626;SDS011;53498;50.422;14.912;2022-08-01T09:29:30;6.03;;;5.05;;
66626;SDS011;53498;50.422;14.912;2022-08-01T09:32:04;5.20;;;4.70;;
66626;SDS011;53498;50.422;14.912;2022-08-01T09:34:30;4.82;;;4.43;;
66626;SDS011;53498;50.422;14.912;2022-08-01T09:36:58;4.28;;;3.97;;
66626;SDS011;53498;50.422;14.912;2022-08-01T09:39:32;3.88;;;3.58;;
66626;SDS011;53498;50.422;14.912;2022-08-01T09:42:02;4.70;;;3.72;;
66626;SDS011;53498;50.422;14.912;2022-08-01T09:44:48;4.00;;;3.70;;
66626;SDS011;53498;50.422;14.912;2022-08-01T09:47:14;5.13;;;3.78;;
66626;SDS011;53498;50.422;14.912;2022-08-01T09:49:42;4.65;;;4.25;;
66626;SDS011;53498;50.422;14.912;2022-08-01T09:52:18;6.47;;;4.25;;
66626;SDS011;53498;50.422;14.912;2022-08-01T09:54:55;4.10;;;3.80;;
66626;SDS011;53498;50.422;14.912;2022-08-01T09:57:23;3.97;;;3.22;;
66626;SDS011;53498;50.422;14.912;2022-08-01T09:59:51;4.32;;;2.80;;
66626;SDS011;53498;50.422;14.912;2022-08-01T10:02:31;3.10;;;2.80;;
66626;SDS011;53498;50.422;14.912;2022-08-01T10:04:59;3.22;;;2.95;;
66626;SDS011;53498;50.422;14.912;2022-08-01T10:07:26;3.38;;;2.90;;
66626;SDS011;53498;50.422;14.912;2022-08-01T10:09:52;3.50;;;3.20;;
66626;SDS011;53498;50.422;14.912;2022-08-01T10:12:19;3.53;;;3.00;;
66626;SDS011;53498;50.422;14.912;2022-08-01T10:14:46;3.33;;;3.03;;
66626;SDS011;53498;50.422;14.912;2022-08-01T10:17:20;4.70;;;2.35;;
66626;SDS011;53498;50.422;14.912;2022-08-01T10:19:49;3.10;;;2.90;;
66626;SDS011;53498;50.422;14.912;2022-08-01T10:22:19;2.63;;;2.42;;
66626;SDS011;53498;50.422;14.912;2022-08-01T10:24:49;3.72;;;3.13;;
66626;SDS011;53498;50.422;14.912;2022-08-01T10:27:19;5.68;;;3.17;;
66626;SDS011;53498;50.422;14.912;2022-08-01T10:32:15;4.15;;;3.85;;
66626;SDS011;53498;50.422;14.912;2022-08-01T10:34:42;3.92;;;2.90;;
66626;SDS011;53498;50.422;14.912;2022-08-01T10:37:08;3.60;;;3.30;;
66626;SDS011;53498;50.422;14.912;2022-08-01T10:39:35;3.75;;;3.45;;
66626;SDS011;53498;50.422;14.912;2022-08-01T10:42:01;4.20;;;3.47;;
66626;SDS011;53498;50.422;14.912;2022-08-01T10:44:31;3.90;;;3.20;;
66626;SDS011;53498;50.422;14.912;2022-08-01T10:47:06;4.00;;;3.67;;
66626;SDS011;53498;50.422;14.912;2022-08-01T10:49:36;4.43;;;3.83;;
66626;SDS011;53498;50.422;14.912;2022-08-01T10:52:19;3.50;;;3.20;;
66626;SDS011;53498;50.422;14.912;2022-08-01T10:54:45;3.70;;;3.40;;
66626;SDS011;53498;50.422;14.912;2022-08-01T10:57:14;4.15;;;3.85;;
66626;SDS011;53498;50.422;14.912;2022-08-01T10:59:47;4.25;;;3.53;;
66626;SDS011;53498;50.422;14.912;2022-08-01T11:02:25;3.55;;;3.17;;
66626;SDS011;53498;50.422;14.912;2022-08-01T11:05:12;4.57;;;3.53;;
66626;SDS011;53498;50.422;14.912;2022-08-01T11:07:47;4.13;;;3.75;;
66626;SDS011;53498;50.422;14.912;2022-08-01T11:13:05;4.18;;;3.63;;
66626;SDS011;53498;50.422;14.912;2022-08-01T11:15:36;4.30;;;3.88;;
66626;SDS011;53498;50.422;14.912;2022-08-01T11:18:28;3.58;;;3.28;;
66626;SDS011;53498;50.422;14.912;2022-08-01T11:21:00;4.70;;;3.55;;
66626;SDS011;53498;50.422;14.912;2022-08-01T11:23:30;4.43;;;3.63;;
66626;SDS011;53498;50.422;14.912;2022-08-01T11:26:12;5.00;;;3.05;;
66626;SDS011;53498;50.422;14.912;2022-08-01T11:28:41;4.45;;;3.85;;
66626;SDS011;53498;50.422;14.912;2022-08-01T11:39:21;3.40;;;3.10;;
66626;SDS011;53498;50.422;14.912;2022-08-01T11:41:31;3.65;;;3.25;;
66626;SDS011;53498;50.422;14.912;2022-08-01T11:49:45;4.57;;;3.28;;
66626;SDS011;53498;50.422;14.912;2022-08-01T11:52:29;3.35;;;2.80;;
66626;SDS011;53498;50.422;14.912;2022-08-01T11:57:27;3.38;;;2.83;;
66626;SDS011;53498;50.422;14.912;2022-08-01T12:00:00;3.38;;;2.70;;
66626;SDS011;53498;50.422;14.912;2022-08-01T12:02:45;9.05;;;2.53;;
66626;SDS011;53498;50.422;14.912;2022-08-01T12:05:12;2.28;;;2.05;;
66626;SDS011;53498;50.422;14.912;2022-08-01T12:07:42;3.17;;;2.28;;
66626;SDS011;53498;50.422;14.912;2022-08-01T12:13:13;2.47;;;2.10;;
66626;SDS011;53498;50.422;14.912;2022-08-01T12:15:34;2.53;;;2.00;;
66626;SDS011;53498;50.422;14.912;2022-08-01T12:18:04;4.80;;;3.20;;
66626;SDS011;53498;50.422;14.912;2022-08-01T12:20:35;3.63;;;3.30;;
66626;SDS011;53498;50.422;14.912;2022-08-01T12:23:03;4.75;;;3.35;;
66626;SDS011;53498;50.422;14.912;2022-08-01T12:25:34;6.22;;;3.05;;
66626;SDS011;53498;50.422;14.912;2022-08-01T12:28:00;4.88;;;3.30;;
66626;SDS011;53498;50.422;14.912;2022-08-01T12:30:28;6.68;;;2.90;;
66626;SDS011;53498;50.422;14.912;2022-08-01T12:32:59;5.25;;;2.72;;
66626;SDS011;53498;50.422;14.912;2022-08-01T12:35:25;4.57;;;2.55;;
66626;SDS011;53498;50.422;14.912;2022-08-01T12:37:53;3.90;;;2.60;;
66626;SDS011;53498;50.422;14.912;2022-08-01T12:42:48;4.20;;;2.58;;
66626;SDS011;53498;50.422;14.912;2022-08-01T12:45:17;3.95;;;2.63;;
66626;SDS011;53498;50.422;14.912;2022-08-01T12:47:48;3.80;;;2.53;;
66626;SDS011;53498;50.422;14.912;2022-08-01T12:50:18;3.60;;;2.50;;
66626;SDS011;53498;50.422;14.912;2022-08-01T12:52:46;3.80;;;2.55;;
66626;SDS011;53498;50.422;14.912;2022-08-01T12:55:13;3.22;;;1.88;;
66626;SDS011;53498;50.422;14.912;2022-08-01T12:57:50;2.88;;;2.10;;
66626;SDS011;53498;50.422;14.912;2022-08-01T13:00:29;3.22;;;2.60;;
66626;SDS011;53498;50.422;14.912;2022-08-01T13:05:28;3.28;;;2.58;;
66626;SDS011;53498;50.422;14.912;2022-08-01T13:08:08;2.80;;;2.40;;
66626;SDS011;53498;50.422;14.912;2022-08-01T13:10:37;3.13;;;2.17;;
66626;SDS011;53498;50.422;14.912;2022-08-01T13:13:04;3.42;;;2.30;;
66626;SDS011;53498;50.422;14.912;2022-08-01T13:15:31;3.17;;;2.30;;
66626;SDS011;53498;50.422;14.912;2022-08-01T13:17:59;3.67;;;2.22;;
66626;SDS011;53498;50.422;14.912;2022-08-01T13:22:54;4.05;;;2.50;;
66626;SDS011;53498;50.422;14.912;2022-08-01T13:25:20;2.55;;;2.25;;
66626;SDS011;53498;50.422;14.912;2022-08-01T13:27:45;2.50;;;2.20;;
66626;SDS011;53498;50.422;14.912;2022-08-01T13:30:12;2.35;;;2.00;;
66626;SDS011;53498;50.422;14.912;2022-08-01T13:32:38;2.55;;;2.30;;
66626;SDS011;53498;50.422;14.912;2022-08-01T13:35:08;2.35;;;2.15;;
66626;SDS011;53498;50.422;14.912;2022-08-01T13:37:35;2.33;;;2.00;;
66626;SDS011;53498;50.422;14.912;2022-08-01T13:40:02;2.83;;;1.80;;
66626;SDS011;53498;50.422;14.912;2022-08-01T13:42:28;2.10;;;1.90;;
66626;SDS011;53498;50.422;14.912;2022-08-01T13:44:54;3.03;;;2.50;;
66626;SDS011;53498;50.422;14.912;2022-08-01T13:47:20;2.70;;;2.50;;
66626;SDS011;53498;50.422;14.912;2022-08-01T13:49:45;3.08;;;2.30;;
66626;SDS011;53498;50.422;14.912;2022-08-01T13:52:11;2.80;;;2.30;;
66626;SDS011;53498;50.422;14.912;2022-08-01T13:54:37;3.45;;;2.40;;
66626;SDS011;53498;50.422;14.912;2022-08-01T13:57:02;3.70;;;1.80;;
66626;SDS011;53498;50.422;14.912;2022-08-01T13:59:28;2.30;;;2.10;;
66626;SDS011;53498;50.422;14.912;2022-08-01T14:01:53;2.58;;;2.38;;
66626;SDS011;53498;50.422;14.912;2022-08-01T14:04:19;3.20;;;3.00;;
66626;SDS011;53498;50.422;14.912;2022-08-01T14:06:53;3.15;;;2.95;;
66626;SDS011;53498;50.422;14.912;2022-08-01T14:09:21;3.10;;;2.90;;
66626;SDS011;53498;50.422;14.912;2022-08-01T14:11:48;3.63;;;3.33;;
66626;SDS011;53498;50.422;14.912;2022-08-01T14:14:13;4.03;;;3.20;;
66626;SDS011;53498;50.422;14.912;2022-08-01T14:16:39;3.63;;;3.40;;
66626;SDS011;53498;50.422;14.912;2022-08-01T14:19:05;3.90;;;3.60;;
66626;SDS011;53498;50.422;14.912;2022-08-01T14:21:30;3.58;;;3.38;;
66626;SDS011;53498;50.422;14.912;2022-08-01T14:23:56;3.58;;;3.38;;
66626;SDS011;53498;50.422;14.912;2022-08-01T14:26:22;2.60;;;2.40;;
66626;SDS011;53498;50.422;14.912;2022-08-01T14:28:47;1.92;;;1.83;;
66626;SDS011;53498;50.422;14.912;2022-08-01T14:31:13;2.55;;;2.35;;
66626;SDS011;53498;50.422;14.912;2022-08-01T14:33:38;2.78;;;2.58;;
66626;SDS011;53498;50.422;14.912;2022-08-01T14:36:04;3.15;;;2.50;;
66626;SDS011;53498;50.422;14.912;2022-08-01T14:38:30;3.30;;;2.63;;
66626;SDS011;53498;50.422;14.912;2022-08-01T14:40:55;2.63;;;2.42;;
66626;SDS011;53498;50.422;14.912;2022-08-01T14:43:21;2.78;;;2.58;;
66626;SDS011;53498;50.422;14.912;2022-08-01T14:45:47;3.92;;;2.97;;
66626;SDS011;53498;50.422;14.912;2022-08-01T14:48:17;2.78;;;2.58;;
66626;SDS011;53498;50.422;14.912;2022-08-01T14:50:43;2.58;;;2.38;;
66626;SDS011;53498;50.422;14.912;2022-08-01T14:53:14;2.80;;;2.50;;
66626;SDS011;53498;50.422;14.912;2022-08-01T14:55:40;2.50;;;2.30;;
66626;SDS011;53498;50.422;14.912;2022-08-01T14:58:05;2.30;;;2.10;;
66626;SDS011;53498;50.422;14.912;2022-08-01T15:00:31;2.85;;;2.55;;
66626;SDS011;53498;50.422;14.912;2022-08-01T15:02:57;2.83;;;2.63;;
66626;SDS011;53498;50.422;14.912;2022-08-01T15:05:22;2.80;;;2.60;;
66626;SDS011;53498;50.422;14.912;2022-08-01T15:07:48;3.78;;;3.03;;
66626;SDS011;53498;50.422;14.912;2022-08-01T15:10:13;2.55;;;2.35;;
66626;SDS011;53498;50.422;14.912;2022-08-01T15:12:41;2.53;;;2.33;;
66626;SDS011;53498;50.422;14.912;2022-08-01T15:15:07;2.65;;;2.45;;
66626;SDS011;53498;50.422;14.912;2022-08-01T15:17:33;2.45;;;2.25;;